Airfield :
LOGIN :

Register | Disclaimer

   EN    FR    IT 

 










Legend :    VFR   Marginal VFR   IFR   Intensive IFR   Very Intensive IFR
Visi :
Ceiling :
>= 8 km
>= 3000ft
5 to 8 km
1000 to 3000 ft
1500m to 5 km
500 to 1000 ft
800 to 1500m
200 to 500 ft
< 800m
< 200 ft
Symbols :   Thunderstorms  Fog  Heavy snow  Heavy precipitations  Wind > 20 kt
SIGMETs :     Misc.  Thunderstorms  Icing  Turbulence  Mountain Waves  Volcanic Ashes






- Airport Elevation : 297 ft
- IATA code : UIP


LFRQ - Quimper Pluguffan

CURRENT METAR :
  • 151300Z AUTO 24010KT 200V260 9999 -RA BKN020 BKN033 BKN043 15/12 Q1009 TEMPO SCT014TCU

EXPIRED METARs :
  • 151230Z AUTO 25014KT 9999 BKN024 BKN058 15/10 Q1009 TEMPO SCT014TCU
  • 151200Z AUTO 25012KT 220V280 9999 BKN026 BKN031 BKN037 16/10 Q1009 TEMPO SCT014TCU
  • 151130Z AUTO 27014KT 230V290 9999 FEW029 15/09 Q1009 TEMPO SCT014TCU
  • 151100Z AUTO 27012G22KT 250V310 9999 BKN031 BKN038 OVC046 15/09 Q1009 TEMPO SHRA SCT014TCU BECMG 24015KT
  • 151030Z AUTO 28014KT 250V310 9999 BKN037 BKN047 16/09 Q1009 TEMPO 24015G25KT SHRA SCT014TCU

TAF TAF LFRQ
Valid from the 15 at 12:00 until the 16 at 12:00 UTC


151100Z 1512/1612 27014KT 9999 SCT035 SCT045
PROB30
TEMPO 1512/1515 -SHRA SCT014TCU
BECMG 1514/1516 -RA OVC010
BECMG 1520/1522 20018G30KT
BECMG 1603/1605 32008KT
TEMPO 1518/1605 3000 RADZ OVC004



MET'MAP, your aeronautical weather chart ! - Copyright ORBIFLY December 2007 - Disclaimer

ORBIFLY MET'MAP TEAM :

Programming & Development : Alexandra Zaïnal
Concept & Development : Baudouin d'Aumeries
Co-Development & Prog : Marc-Olivier Méhu
Technical & hardware support : Manuel Goepfert

Contact : metmap@orbifly.com




SOURCES & CREDITS :

   NOAA